sensor_id;sensor_type;location;lat;lon;timestamp;pressure;altitude;pressure_sealevel;temperature;humidity
73700;BME280;62005;50.082;8.988;2023-04-25T00:00:42;99816.78;;;11.00;82.55
73700;BME280;62005;50.082;8.988;2023-04-25T00:03:08;99811.00;;;10.96;82.14
73700;BME280;62005;50.082;8.988;2023-04-25T00:05:34;99815.59;;;10.96;82.22
73700;BME280;62005;50.082;8.988;2023-04-25T00:07:59;99802.94;;;10.85;82.67
73700;BME280;62005;50.082;8.988;2023-04-25T00:10:25;99784.03;;;10.73;82.71
73700;BME280;62005;50.082;8.988;2023-04-25T00:12:50;99794.34;;;10.76;82.94
73700;BME280;62005;50.082;8.988;2023-04-25T00:15:16;99812.13;;;10.84;82.75
73700;BME280;62005;50.082;8.988;2023-04-25T00:17:42;99806.72;;;10.84;82.97
73700;BME280;62005;50.082;8.988;2023-04-25T00:20:08;99798.13;;;10.75;83.04
73700;BME280;62005;50.082;8.988;2023-04-25T00:22:35;99798.13;;;10.75;83.04
73700;BME280;62005;50.082;8.988;2023-04-25T00:25:03;99804.03;;;10.72;83.09
73700;BME280;62005;50.082;8.988;2023-04-25T00:27:28;99812.38;;;10.71;83.55
73700;BME280;62005;50.082;8.988;2023-04-25T00:29:54;99806.97;;;10.71;83.51
73700;BME280;62005;50.082;8.988;2023-04-25T00:32:19;99763.53;;;10.37;83.32
73700;BME280;62005;50.082;8.988;2023-04-25T00:34:44;99814.13;;;10.65;83.82
73700;BME280;62005;50.082;8.988;2023-04-25T00:37:09;99816.81;;;10.65;83.51
73700;BME280;62005;50.082;8.988;2023-04-25T00:39:35;99810.97;;;10.57;83.32
73700;BME280;62005;50.082;8.988;2023-04-25T00:42:01;99822.47;;;10.64;84.08
73700;BME280;62005;50.082;8.988;2023-04-25T00:44:29;99815.88;;;10.60;83.53
73700;BME280;62005;50.082;8.988;2023-04-25T00:46:55;99816.38;;;10.57;83.65
73700;BME280;62005;50.082;8.988;2023-04-25T00:49:21;99806.50;;;10.50;83.75
73700;BME280;62005;50.082;8.988;2023-04-25T00:51:46;99807.66;;;10.54;83.83
73700;BME280;62005;50.082;8.988;2023-04-25T00:54:12;99820.13;;;10.56;83.47
73700;BME280;62005;50.082;8.988;2023-04-25T00:56:39;99818.47;;;10.54;83.35
73700;BME280;62005;50.082;8.988;2023-04-25T00:59:04;99818.34;;;10.49;83.18
73700;BME280;62005;50.082;8.988;2023-04-25T01:01:30;99817.31;;;10.50;83.25
73700;BME280;62005;50.082;8.988;2023-04-25T01:03:58;99811.19;;;10.43;83.53
73700;BME280;62005;50.082;8.988;2023-04-25T01:06:23;99820.50;;;10.47;84.09
73700;BME280;62005;50.082;8.988;2023-04-25T01:08:48;99805.19;;;10.41;84.21
73700;BME280;62005;50.082;8.988;2023-04-25T01:11:14;99794.88;;;10.38;83.99
73700;BME280;62005;50.082;8.988;2023-04-25T01:13:39;99804.63;;;10.39;83.41
73700;BME280;62005;50.082;8.988;2023-04-25T01:16:05;99812.75;;;10.39;83.77
73700;BME280;62005;50.082;8.988;2023-04-25T01:18:30;99801.81;;;10.34;83.46
73700;BME280;62005;50.082;8.988;2023-04-25T01:21:02;99783.22;;;10.26;83.67
73700;BME280;62005;50.082;8.988;2023-04-25T01:23:32;99795.22;;;10.30;83.40
73700;BME280;62005;50.082;8.988;2023-04-25T01:25:58;99789.13;;;10.23;84.20
73700;BME280;62005;50.082;8.988;2023-04-25T01:28:24;99804.03;;;10.26;83.91
73700;BME280;62005;50.082;8.988;2023-04-25T01:30:50;99804.28;;;10.24;84.00
73700;BME280;62005;50.082;8.988;2023-04-25T01:33:17;99797.69;;;10.20;84.55
73700;BME280;62005;50.082;8.988;2023-04-25T01:35:42;99795.47;;;10.17;84.53
73700;BME280;62005;50.082;8.988;2023-04-25T01:38:08;99807.44;;;10.21;84.16
73700;BME280;62005;50.082;8.988;2023-04-25T01:40:34;99809.56;;;10.19;84.63
73700;BME280;62005;50.082;8.988;2023-04-25T01:43:00;99798.41;;;10.16;84.44
73700;BME280;62005;50.082;8.988;2023-04-25T01:45:28;99785.59;;;10.11;83.89
73700;BME280;62005;50.082;8.988;2023-04-25T01:47:54;99799.19;;;10.16;84.07
73700;BME280;62005;50.082;8.988;2023-04-25T01:50:20;99786.03;;;10.08;84.11
73700;BME280;62005;50.082;8.988;2023-04-25T01:52:45;99802.59;;;10.12;84.05
73700;BME280;62005;50.082;8.988;2023-04-25T01:55:10;99784.84;;;10.04;84.47
73700;BME280;62005;50.082;8.988;2023-04-25T01:57:36;99809.44;;;10.14;84.69
73700;BME280;62005;50.082;8.988;2023-04-25T02:00:04;99797.75;;;10.02;84.65
73700;BME280;62005;50.082;8.988;2023-04-25T02:02:30;99805.97;;;10.07;84.70
73700;BME280;62005;50.082;8.988;2023-04-25T02:04:56;99803.16;;;10.02;84.65
73700;BME280;62005;50.082;8.988;2023-04-25T02:07:21;99803.16;;;10.02;85.38
73700;BME280;62005;50.082;8.988;2023-04-25T02:09:47;99823.84;;;10.08;85.16
73700;BME280;62005;50.082;8.988;2023-04-25T02:12:12;99786.34;;;9.89;84.79
73700;BME280;62005;50.082;8.988;2023-04-25T02:14:38;99783.88;;;9.87;84.92
73700;BME280;62005;50.082;8.988;2023-04-25T02:17:04;99776.84;;;9.86;85.13
73700;BME280;62005;50.082;8.988;2023-04-25T02:19:29;99782.25;;;9.86;85.00
73700;BME280;62005;50.082;8.988;2023-04-25T02:21:54;99759.22;;;9.72;84.89
73700;BME280;62005;50.082;8.988;2023-04-25T02:24:20;99784.34;;;9.84;85.22
73700;BME280;62005;50.082;8.988;2023-04-25T02:26:45;99757.56;;;9.71;85.40
73700;BME280;62005;50.082;8.988;2023-04-25T02:29:12;99782.25;;;9.86;85.13
73700;BME280;62005;50.082;8.988;2023-04-25T02:31:37;99808.19;;;9.99;85.49
73700;BME280;62005;50.082;8.988;2023-04-25T02:34:02;99783.28;;;9.85;85.18
73700;BME280;62005;50.082;8.988;2023-04-25T02:36:28;99808.56;;;10.02;85.67
73700;BME280;62005;50.082;8.988;2023-04-25T02:38:55;99797.88;;;9.96;85.38
73700;BME280;62005;50.082;8.988;2023-04-25T02:41:20;99787.78;;;9.91;85.83
73700;BME280;62005;50.082;8.988;2023-04-25T02:43:46;99795.41;;;9.94;85.44
73700;BME280;62005;50.082;8.988;2023-04-25T02:46:11;99788.81;;;9.90;85.60
73700;BME280;62005;50.082;8.988;2023-04-25T02:48:36;99780.59;;;9.85;85.78
73700;BME280;62005;50.082;8.988;2023-04-25T02:51:02;99756.50;;;9.72;85.40
73700;BME280;62005;50.082;8.988;2023-04-25T02:53:27;99781.78;;;9.89;85.26
73700;BME280;62005;50.082;8.988;2023-04-25T02:55:52;99790.47;;;9.91;85.41
73700;BME280;62005;50.082;8.988;2023-04-25T02:58:18;99775.19;;;9.85;85.60
73700;BME280;62005;50.082;8.988;2023-04-25T03:00:43;99795.41;;;9.94;85.69
73700;BME280;62005;50.082;8.988;2023-04-25T03:03:09;99778.47;;;9.87;85.66
73700;BME280;62005;50.082;8.988;2023-04-25T03:05:34;99756.38;;;9.67;85.72
73700;BME280;62005;50.082;8.988;2023-04-25T03:08:00;99793.75;;;9.93;85.58
73700;BME280;62005;50.082;8.988;2023-04-25T03:10:26;99797.50;;;9.92;85.39
73700;BME280;62005;50.082;8.988;2023-04-25T03:12:51;99788.81;;;9.90;85.63
73700;BME280;62005;50.082;8.988;2023-04-25T03:15:16;99794.22;;;9.90;86.27
73700;BME280;62005;50.082;8.988;2023-04-25T03:17:42;99794.69;;;9.87;86.20
73700;BME280;62005;50.082;8.988;2023-04-25T03:20:07;99793.94;;;9.80;85.93
73700;BME280;62005;50.082;8.988;2023-04-25T03:22:33;99783.16;;;9.80;85.85
73700;BME280;62005;50.082;8.988;2023-04-25T03:24:59;99804.75;;;9.80;85.06
73700;BME280;62005;50.082;8.988;2023-04-25T03:27:24;99806.78;;;9.85;84.80
73700;BME280;62005;50.082;8.988;2023-04-25T03:29:50;99801.47;;;9.78;84.79
73700;BME280;62005;50.082;8.988;2023-04-25T03:32:15;99820.50;;;9.83;84.86
73700;BME280;62005;50.082;8.988;2023-04-25T03:34:40;99815.53;;;9.80;84.30
73700;BME280;62005;50.082;8.988;2023-04-25T03:37:06;99808.97;;;9.76;84.54
73700;BME280;62005;50.082;8.988;2023-04-25T03:39:31;99802.84;;;9.69;84.35
73700;BME280;62005;50.082;8.988;2023-04-25T03:41:57;99818.13;;;9.75;84.81
73700;BME280;62005;50.082;8.988;2023-04-25T03:44:22;99807.06;;;9.65;84.85
73700;BME280;62005;50.082;8.988;2023-04-25T03:46:49;99788.59;;;9.51;84.27
73700;BME280;62005;50.082;8.988;2023-04-25T03:49:14;99807.97;;;9.59;85.13
73700;BME280;62005;50.082;8.988;2023-04-25T03:51:40;99806.81;;;9.55;84.90
73700;BME280;62005;50.082;8.988;2023-04-25T03:54:05;99829.56;;;9.59;85.02
73700;BME280;62005;50.082;8.988;2023-04-25T03:56:30;99829.09;;;9.62;85.59
73700;BME280;62005;50.082;8.988;2023-04-25T03:58:56;99819.25;;;9.56;84.95
73700;BME280;62005;50.082;8.988;2023-04-25T04:01:21;99805.34;;;9.41;85.30
73700;BME280;62005;50.082;8.988;2023-04-25T04:03:46;99822.63;;;9.52;85.04
73700;BME280;62005;50.082;8.988;2023-04-25T04:06:12;99823.00;;;9.55;84.79
73700;BME280;62005;50.082;8.988;2023-04-25T04:08:38;99833.78;;;9.55;85.63
73700;BME280;62005;50.082;8.988;2023-04-25T04:11:03;99793.81;;;9.34;84.95
73700;BME280;62005;50.082;8.988;2023-04-25T04:13:29;99830.03;;;9.56;84.85
73700;BME280;62005;50.082;8.988;2023-04-25T04:15:55;99825.56;;;9.50;84.89
73700;BME280;62005;50.082;8.988;2023-04-25T04:18:21;99786.50;;;9.23;84.73
73700;BME280;62005;50.082;8.988;2023-04-25T04:20:46;99834.22;;;9.52;84.36
73700;BME280;62005;50.082;8.988;2023-04-25T04:23:12;99830.22;;;9.43;84.47
73700;BME280;62005;50.082;8.988;2023-04-25T04:25:38;99819.16;;;9.33;84.91
73700;BME280;62005;50.082;8.988;2023-04-25T04:28:05;99843.47;;;9.45;84.74
73700;BME280;62005;50.082;8.988;2023-04-25T04:30:31;99858.38;;;9.47;83.83
73700;BME280;62005;50.082;8.988;2023-04-25T04:32:59;99816.31;;;9.28;83.21
73700;BME280;62005;50.082;8.988;2023-04-25T04:35:26;99807.34;;;9.16;82.02
73700;BME280;62005;50.082;8.988;2023-04-25T04:37:51;99845.66;;;9.36;81.91
73700;BME280;62005;50.082;8.988;2023-04-25T04:40:17;99856.22;;;9.38;81.62
73700;BME280;62005;50.082;8.988;2023-04-25T04:42:43;99844.91;;;9.29;81.89
73700;BME280;62005;50.082;8.988;2023-04-25T04:45:10;99861.38;;;9.39;80.99
73700;BME280;62005;50.082;8.988;2023-04-25T04:47:36;99867.25;;;9.36;81.10
73700;BME280;62005;50.082;8.988;2023-04-25T04:50:02;99860.66;;;9.32;81.31
73700;BME280;62005;50.082;8.988;2023-04-25T04:52:27;99868.16;;;9.30;81.30
73700;BME280;62005;50.082;8.988;2023-04-25T04:54:53;99876.84;;;9.32;81.27
73700;BME280;62005;50.082;8.988;2023-04-25T04:57:18;99868.00;;;9.25;80.37
73700;BME280;62005;50.082;8.988;2023-04-25T04:59:44;99882.25;;;9.32;80.51
73700;BME280;62005;50.082;8.988;2023-04-25T05:02:09;99875.41;;;9.30;80.65
73700;BME280;62005;50.082;8.988;2023-04-25T05:04:35;99895.41;;;9.40;80.24
73700;BME280;62005;50.082;8.988;2023-04-25T05:07:00;99875.19;;;9.31;79.84
73700;BME280;62005;50.082;8.988;2023-04-25T05:09:26;99860.81;;;9.19;80.16
73700;BME280;62005;50.082;8.988;2023-04-25T05:11:52;99858.72;;;9.21;80.34
73700;BME280;62005;50.082;8.988;2023-04-25T05:14:17;99886.25;;;9.41;80.34
73700;BME280;62005;50.082;8.988;2023-04-25T05:16:45;99814.56;;;9.04;80.45
73700;BME280;62005;50.082;8.988;2023-04-25T05:19:11;99872.53;;;9.43;80.73
73700;BME280;62005;50.082;8.988;2023-04-25T05:21:36;99866.78;;;9.39;80.49
73700;BME280;62005;50.082;8.988;2023-04-25T05:24:01;99856.59;;;9.41;80.91
73700;BME280;62005;50.082;8.988;2023-04-25T05:26:30;99840.72;;;9.33;80.95
73700;BME280;62005;50.082;8.988;2023-04-25T05:28:57;99913.91;;;9.84;80.89
73700;BME280;62005;50.082;8.988;2023-04-25T05:31:25;99898.66;;;9.78;80.40
73700;BME280;62005;50.082;8.988;2023-04-25T05:33:51;99929.31;;;9.95;79.74
73700;BME280;62005;50.082;8.988;2023-04-25T05:36:18;99882.97;;;9.69;78.66
73700;BME280;62005;50.082;8.988;2023-04-25T05:38:43;99906.50;;;9.80;78.26
73700;BME280;62005;50.082;8.988;2023-04-25T05:41:12;99884.81;;;9.86;79.08
73700;BME280;62005;50.082;8.988;2023-04-25T05:43:46;99929.09;;;10.26;78.98
73700;BME280;62005;50.082;8.988;2023-04-25T05:46:15;99894.94;;;10.32;78.03
73700;BME280;62005;50.082;8.988;2023-04-25T05:49:08;99937.41;;;10.78;77.51
73700;BME280;62005;50.082;8.988;2023-04-25T05:51:34;99901.69;;;10.76;76.92
73700;BME280;62005;50.082;8.988;2023-04-25T05:53:59;99920.25;;;11.07;76.04
73700;BME280;62005;50.082;8.988;2023-04-25T05:56:46;99876.28;;;11.00;75.40
73700;BME280;62005;50.082;8.988;2023-04-25T05:59:42;99872.44;;;11.24;74.20
73700;BME280;62005;50.082;8.988;2023-04-25T06:02:38;99925.53;;;11.76;73.30
73700;BME280;62005;50.082;8.988;2023-04-25T06:16:03;99932.91;;;12.86;68.12
73700;BME280;62005;50.082;8.988;2023-04-25T06:33:06;99938.44;;;14.16;65.08
73700;BME280;62005;50.082;8.988;2023-04-25T06:35:34;99933.44;;;14.29;62.59
73700;BME280;62005;50.082;8.988;2023-04-25T06:37:59;99908.66;;;14.26;63.22
73700;BME280;62005;50.082;8.988;2023-04-25T06:40:27;99896.69;;;14.27;62.29
73700;BME280;62005;50.082;8.988;2023-04-25T06:50:18;99936.06;;;14.51;60.54
73700;BME280;62005;50.082;8.988;2023-04-25T06:59:59;99887.56;;;13.85;60.67
73700;BME280;62005;50.082;8.988;2023-04-25T07:06:35;99945.63;;;14.27;61.17
73700;BME280;62005;50.082;8.988;2023-04-25T07:13:27;99933.31;;;14.46;60.58
73700;BME280;62005;50.082;8.988;2023-04-25T07:16:33;99891.25;;;14.27;59.10
73700;BME280;62005;50.082;8.988;2023-04-25T07:29:57;99942.28;;;14.78;57.17
73700;BME280;62005;50.082;8.988;2023-04-25T07:32:23;99956.44;;;14.80;58.08
73700;BME280;62005;50.082;8.988;2023-04-25T07:38:20;99955.75;;;14.63;56.17
73700;BME280;62005;50.082;8.988;2023-04-25T07:40:49;99918.53;;;14.37;56.61
73700;BME280;62005;50.082;8.988;2023-04-25T07:43:17;99945.00;;;14.47;57.19
73700;BME280;62005;50.082;8.988;2023-04-25T07:45:45;99962.16;;;14.47;56.94
73700;BME280;62005;50.082;8.988;2023-04-25T07:48:16;99934.75;;;14.27;57.86
73700;BME280;62005;50.082;8.988;2023-04-25T07:50:47;99939.66;;;14.30;57.77
73700;BME280;62005;50.082;8.988;2023-04-25T07:53:13;99957.75;;;14.41;58.86
73700;BME280;62005;50.082;8.988;2023-04-25T07:55:56;99906.31;;;14.13;58.04
73700;BME280;62005;50.082;8.988;2023-04-25T07:58:39;99940.81;;;14.34;56.04
73700;BME280;62005;50.082;8.988;2023-04-25T08:01:04;99975.31;;;14.60;58.02
73700;BME280;62005;50.082;8.988;2023-04-25T08:03:36;99967.78;;;14.67;56.96
73700;BME280;62005;50.082;8.988;2023-04-25T08:20:22;99940.50;;;14.94;55.65
73700;BME280;62005;50.082;8.988;2023-04-25T08:23:18;99935.00;;;14.84;54.48
73700;BME280;62005;50.082;8.988;2023-04-25T08:26:11;99945.03;;;14.83;54.38
73700;BME280;62005;50.082;8.988;2023-04-25T08:29:05;99950.47;;;14.83;54.58
73700;BME280;62005;50.082;8.988;2023-04-25T08:31:31;99973.75;;;15.01;55.42
73700;BME280;62005;50.082;8.988;2023-04-25T08:33:57;100008.44;;;15.15;54.77
73700;BME280;62005;50.082;8.988;2023-04-25T08:43:51;100002.84;;;14.95;54.91
73700;BME280;62005;50.082;8.988;2023-04-25T08:49:38;100001.63;;;14.81;54.90
73700;BME280;62005;50.082;8.988;2023-04-25T08:52:37;99998.84;;;14.76;54.07
73700;BME280;62005;50.082;8.988;2023-04-25T08:55:22;99961.31;;;14.47;54.80
73700;BME280;62005;50.082;8.988;2023-04-25T08:57:48;99968.09;;;14.44;53.97
73700;BME280;62005;50.082;8.988;2023-04-25T09:00:18;99974.13;;;14.51;54.76
73700;BME280;62005;50.082;8.988;2023-04-25T09:02:44;100019.59;;;14.82;55.54
73700;BME280;62005;50.082;8.988;2023-04-25T09:05:13;99974.13;;;14.51;53.31
73700;BME280;62005;50.082;8.988;2023-04-25T09:07:44;99986.16;;;14.55;54.72
73700;BME280;62005;50.082;8.988;2023-04-25T09:10:14;100002.84;;;14.64;54.98
73700;BME280;62005;50.082;8.988;2023-04-25T09:16:03;100013.66;;;14.59;54.42
73700;BME280;62005;50.082;8.988;2023-04-25T09:18:41;99994.47;;;14.44;54.38
73700;BME280;62005;50.082;8.988;2023-04-25T09:21:10;100029.16;;;14.58;54.80
73700;BME280;62005;50.082;8.988;2023-04-25T09:23:48;100026.28;;;14.43;54.81
73700;BME280;62005;50.082;8.988;2023-04-25T09:26:21;100066.44;;;14.58;54.93
73700;BME280;62005;50.082;8.988;2023-04-25T09:29:05;100054.31;;;14.44;54.17
73700;BME280;62005;50.082;8.988;2023-04-25T09:31:33;100070.41;;;14.50;55.00
73700;BME280;62005;50.082;8.988;2023-04-25T09:34:03;100019.91;;;14.11;54.57
73700;BME280;62005;50.082;8.988;2023-04-25T09:36:38;100011.63;;;14.01;54.06
73700;BME280;62005;50.082;8.988;2023-04-25T09:39:12;100046.00;;;14.12;53.94
73700;BME280;62005;50.082;8.988;2023-04-25T09:41:40;100084.34;;;14.32;55.74
73700;BME280;62005;50.082;8.988;2023-04-25T09:44:12;100046.53;;;14.09;55.64
73700;BME280;62005;50.082;8.988;2023-04-25T09:46:43;100025.09;;;13.91;54.87
73700;BME280;62005;50.082;8.988;2023-04-25T09:49:14;100044.75;;;13.98;55.20
73700;BME280;62005;50.082;8.988;2023-04-25T09:51:40;100053.47;;;14.00;55.03
73700;BME280;62005;50.082;8.988;2023-04-25T09:54:05;100037.06;;;13.90;55.86
73700;BME280;62005;50.082;8.988;2023-04-25T09:56:36;100041.66;;;13.89;55.62
73700;BME280;62005;50.082;8.988;2023-04-25T09:59:02;100060.44;;;13.91;53.88
73700;BME280;62005;50.082;8.988;2023-04-25T10:01:28;100079.00;;;13.99;54.71
73700;BME280;62005;50.082;8.988;2023-04-25T10:03:56;100090.19;;;14.02;55.46
73700;BME280;62005;50.082;8.988;2023-04-25T10:06:28;100087.22;;;14.04;53.71
73700;BME280;62005;50.082;8.988;2023-04-25T10:09:00;100095.13;;;14.05;53.73
73700;BME280;62005;50.082;8.988;2023-04-25T10:11:26;100078.34;;;13.92;53.66
73700;BME280;62005;50.082;8.988;2023-04-25T10:14:01;100064.09;;;13.80;55.11
73700;BME280;62005;50.082;8.988;2023-04-25T10:16:35;100058.41;;;13.81;55.67
73700;BME280;62005;50.082;8.988;2023-04-25T10:19:02;100068.56;;;13.91;55.20
73700;BME280;62005;50.082;8.988;2023-04-25T10:24:19;100062.88;;;13.92;56.60
73700;BME280;62005;50.082;8.988;2023-04-25T10:27:07;100064.84;;;13.97;55.34
73700;BME280;62005;50.082;8.988;2023-04-25T10:29:35;100073.56;;;13.99;55.43
73700;BME280;62005;50.082;8.988;2023-04-25T10:32:02;100102.03;;;14.13;56.11
73700;BME280;62005;50.082;8.988;2023-04-25T10:34:43;100116.69;;;14.12;55.28
73700;BME280;62005;50.082;8.988;2023-04-25T10:37:12;100099.44;;;14.01;54.51
73700;BME280;62005;50.082;8.988;2023-04-25T10:39:41;100110.06;;;14.03;54.95
73700;BME280;62005;50.082;8.988;2023-04-25T10:42:07;100113.81;;;14.02;56.08
73700;BME280;62005;50.082;8.988;2023-04-25T10:44:37;100081.69;;;13.77;55.41
73700;BME280;62005;50.082;8.988;2023-04-25T10:47:06;100055.06;;;13.58;54.66
73700;BME280;62005;50.082;8.988;2023-04-25T10:49:45;100077.81;;;13.52;53.63
73700;BME280;62005;50.082;8.988;2023-04-25T10:52:27;100087.50;;;13.48;53.56
73700;BME280;62005;50.082;8.988;2023-04-25T10:54:56;100128.47;;;13.63;54.82
73700;BME280;62005;50.082;8.988;2023-04-25T10:57:41;100123.53;;;13.60;55.52
73700;BME280;62005;50.082;8.988;2023-04-25T11:00:14;100129.47;;;13.57;56.19
73700;BME280;62005;50.082;8.988;2023-04-25T11:03:06;100140.81;;;13.54;57.11
73700;BME280;62005;50.082;8.988;2023-04-25T11:05:33;100137.94;;;13.44;56.03
73700;BME280;62005;50.082;8.988;2023-04-25T11:07:59;100091.59;;;13.00;56.17
73700;BME280;62005;50.082;8.988;2023-04-25T11:10:35;100094.22;;;12.95;56.22
73700;BME280;62005;50.082;8.988;2023-04-25T11:13:03;100125.66;;;13.08;56.02
73700;BME280;62005;50.082;8.988;2023-04-25T11:15:31;100097.44;;;12.81;56.14
73700;BME280;62005;50.082;8.988;2023-04-25T11:17:59;100156.94;;;13.11;55.80
73700;BME280;62005;50.082;8.988;2023-04-25T11:20:28;100086.91;;;12.68;55.62
73700;BME280;62005;50.082;8.988;2023-04-25T11:22:59;100107.31;;;12.70;55.90
73700;BME280;62005;50.082;8.988;2023-04-25T11:25:31;100139.06;;;12.86;55.98
73700;BME280;62005;50.082;8.988;2023-04-25T11:28:00;100142.72;;;12.92;55.54
73700;BME280;62005;50.082;8.988;2023-04-25T11:30:27;100119.78;;;12.71;55.85
73700;BME280;62005;50.082;8.988;2023-04-25T11:32:53;100153.22;;;12.88;56.33
73700;BME280;62005;50.082;8.988;2023-04-25T11:35:19;100151.75;;;12.97;56.37
73700;BME280;62005;50.082;8.988;2023-04-25T11:37:46;100157.16;;;12.97;55.29
73700;BME280;62005;50.082;8.988;2023-04-25T11:40:11;100146.81;;;12.94;57.10
73700;BME280;62005;50.082;8.988;2023-04-25T11:42:38;100150.00;;;13.03;57.21
73700;BME280;62005;50.082;8.988;2023-04-25T11:45:05;100128.81;;;12.88;57.27
73700;BME280;62005;50.082;8.988;2023-04-25T11:47:31;100087.75;;;12.68;56.58
73700;BME280;62005;50.082;8.988;2023-04-25T11:50:03;100104.00;;;12.68;56.46
73700;BME280;62005;50.082;8.988;2023-04-25T11:52:38;100149.75;;;13.04;56.66
73700;BME280;62005;50.082;8.988;2023-04-25T11:55:09;100105.84;;;12.79;56.15
73700;BME280;62005;50.082;8.988;2023-04-25T11:57:37;100122.78;;;12.86;55.67
73700;BME280;62005;50.082;8.988;2023-04-25T12:00:16;100101.31;;;12.68;55.09
73700;BME280;62005;50.082;8.988;2023-04-25T12:02:54;100132.00;;;12.85;55.76
73700;BME280;62005;50.082;8.988;2023-04-25T12:05:19;100178.63;;;13.11;55.33
73700;BME280;62005;50.082;8.988;2023-04-25T12:07:46;100148.28;;;12.85;55.40
73700;BME280;62005;50.082;8.988;2023-04-25T12:10:16;100175.13;;;12.98;55.55
73700;BME280;62005;50.082;8.988;2023-04-25T12:12:45;100117.47;;;12.63;55.38
73700;BME280;62005;50.082;8.988;2023-04-25T12:15:22;100180.09;;;13.01;55.53
73700;BME280;62005;50.082;8.988;2023-04-25T12:17:50;100194.25;;;13.03;55.13
73700;BME280;62005;50.082;8.988;2023-04-25T12:20:18;100185.97;;;12.98;55.15
73700;BME280;62005;50.082;8.988;2023-04-25T12:22:47;100200.13;;;13.00;56.58
73700;BME280;62005;50.082;8.988;2023-04-25T12:25:40;100190.22;;;12.94;55.95
73700;BME280;62005;50.082;8.988;2023-04-25T12:28:13;100188.09;;;12.96;56.19
73700;BME280;62005;50.082;8.988;2023-04-25T12:31:15;100176.34;;;12.79;55.89
73700;BME280;62005;50.082;8.988;2023-04-25T12:33:41;100157.16;;;12.69;56.30
73700;BME280;62005;50.082;8.988;2023-04-25T12:36:07;100187.31;;;12.84;56.03
73700;BME280;62005;50.082;8.988;2023-04-25T12:38:39;100180.16;;;12.78;55.79
73700;BME280;62005;50.082;8.988;2023-04-25T12:41:05;100188.38;;;12.83;56.36
73700;BME280;62005;50.082;8.988;2023-04-25T12:43:31;100175.69;;;12.72;55.83
73700;BME280;62005;50.082;8.988;2023-04-25T12:45:57;100194.31;;;12.80;56.15
73700;BME280;62005;50.082;8.988;2023-04-25T12:48:24;100186.56;;;12.72;55.24
73700;BME280;62005;50.082;8.988;2023-04-25T12:50:53;100139.25;;;12.40;54.97
73700;BME280;62005;50.082;8.988;2023-04-25T12:53:21;100178.09;;;12.57;55.67
73700;BME280;62005;50.082;8.988;2023-04-25T12:55:47;100175.28;;;12.52;55.12
73700;BME280;62005;50.082;8.988;2023-04-25T12:58:21;100160.44;;;12.43;54.72
73700;BME280;62005;50.082;8.988;2023-04-25T13:00:56;100142.13;;;12.22;55.01
73700;BME280;62005;50.082;8.988;2023-04-25T13:03:25;100196.84;;;12.59;54.17
73700;BME280;62005;50.082;8.988;2023-04-25T13:05:51;100203.56;;;12.56;54.11
73700;BME280;62005;50.082;8.988;2023-04-25T13:08:18;100192.34;;;12.53;53.96
73700;BME280;62005;50.082;8.988;2023-04-25T13:10:43;100210.16;;;12.60;53.94
73700;BME280;62005;50.082;8.988;2023-04-25T13:13:09;100208.03;;;12.62;54.31
73700;BME280;62005;50.082;8.988;2023-04-25T13:15:34;100207.78;;;12.64;53.82
73700;BME280;62005;50.082;8.988;2023-04-25T13:18:00;100166.84;;;12.37;54.24
73700;BME280;62005;50.082;8.988;2023-04-25T13:20:28;100151.44;;;12.26;54.11
73700;BME280;62005;50.082;8.988;2023-04-25T13:22:53;100145.06;;;12.21;54.51
73700;BME280;62005;50.082;8.988;2023-04-25T13:25:19;100202.41;;;12.52;54.82
73700;BME280;62005;50.082;8.988;2023-04-25T13:27:47;100169.44;;;12.32;54.48
73700;BME280;62005;50.082;8.988;2023-04-25T13:30:16;100224.16;;;12.69;54.10
73700;BME280;62005;50.082;8.988;2023-04-25T13:32:41;100216.84;;;12.69;54.71
73700;BME280;62005;50.082;8.988;2023-04-25T13:35:11;100186.63;;;12.49;54.02
73700;BME280;62005;50.082;8.988;2023-04-25T13:37:39;100159.75;;;12.36;54.21
73700;BME280;62005;50.082;8.988;2023-04-25T13:40:07;100186.78;;;12.59;54.30
73700;BME280;62005;50.082;8.988;2023-04-25T13:42:34;100216.94;;;12.74;54.26
73700;BME280;62005;50.082;8.988;2023-04-25T13:45:06;100169.88;;;12.52;54.02
73700;BME280;62005;50.082;8.988;2023-04-25T13:47:31;100195.16;;;12.69;55.40
73700;BME280;62005;50.082;8.988;2023-04-25T13:50:00;100160.16;;;12.56;55.08
73700;BME280;62005;50.082;8.988;2023-04-25T13:52:33;100197.59;;;12.82;55.51
73700;BME280;62005;50.082;8.988;2023-04-25T13:54:59;100199.34;;;12.88;53.95
73700;BME280;62005;50.082;8.988;2023-04-25T13:57:25;100181.44;;;12.76;52.82
73700;BME280;62005;50.082;8.988;2023-04-25T13:59:51;100197.00;;;12.80;53.56
73700;BME280;62005;50.082;8.988;2023-04-25T14:02:19;100205.81;;;12.87;52.51
73700;BME280;62005;50.082;8.988;2023-04-25T14:04:48;100213.50;;;12.90;53.17
73700;BME280;62005;50.082;8.988;2023-04-25T14:07:13;100228.94;;;13.01;53.63
73700;BME280;62005;50.082;8.988;2023-04-25T14:09:41;100220.66;;;12.96;52.12
73700;BME280;62005;50.082;8.988;2023-04-25T14:12:09;100186.06;;;12.75;51.96
73700;BME280;62005;50.082;8.988;2023-04-25T14:14:34;100184.41;;;12.74;52.16
73700;BME280;62005;50.082;8.988;2023-04-25T14:17:00;100169.59;;;12.65;53.42
73700;BME280;62005;50.082;8.988;2023-04-25T14:19:26;100191.59;;;12.80;52.88
73700;BME280;62005;50.082;8.988;2023-04-25T14:21:57;100169.94;;;12.69;53.07
73700;BME280;62005;50.082;8.988;2023-04-25T14:24:22;100213.59;;;12.95;53.10
73700;BME280;62005;50.082;8.988;2023-04-25T14:26:48;100169.78;;;12.75;53.28
73700;BME280;62005;50.082;8.988;2023-04-25T14:29:13;100172.84;;;12.79;53.45
73700;BME280;62005;50.082;8.988;2023-04-25T14:31:39;100229.13;;;13.12;52.40
73700;BME280;62005;50.082;8.988;2023-04-25T14:34:08;100209.31;;;12.99;52.85
73700;BME280;62005;50.082;8.988;2023-04-25T14:36:46;100202.25;;;12.98;52.85
73700;BME280;62005;50.082;8.988;2023-04-25T14:39:14;100228.16;;;13.18;53.69